Time;durP1;ratioP1;P1;durP2;ratioP2;P2;SDS_P1;SDS_P2;PMS_P1;PMS_P2;Temp;Humidity;BMP_temperature;BMP_pressure;BME280_temperature;BME280_humidity;BME280_pressure;Samples;Min_cycle;Max_cycle;Signal;HPM_P1;HPM_P2
2021/10/09 00:00:08;;;;;;;62.28;42.50;;;8.70;99.90;;;;;;5051564;28;20063;-68
2021/10/09 00:02:34;;;;;;;62.63;44.35;;;8.80;99.90;;;;;;5029310;28;20049;-68
2021/10/09 00:05:00;;;;;;;66.13;44.25;;;8.70;99.90;;;;;;5050697;28;20082;-68
2021/10/09 00:07:26;;;;;;;70.53;46.22;;;8.80;99.90;;;;;;5051576;28;20155;-68
2021/10/09 00:09:57;;;;;;;63.33;44.38;;;8.80;99.90;;;;;;5051350;28;20861;-69
2021/10/09 00:12:22;;;;;;;67.60;43.60;;;8.80;99.90;;;;;;5047857;28;20041;-68
2021/10/09 00:14:48;;;;;;;62.67;44.63;;;8.80;99.90;;;;;;5051762;28;20094;-68
2021/10/09 00:17:15;;;;;;;62.45;42.75;;;8.80;99.90;;;;;;5053682;28;20076;-68
2021/10/09 00:19:41;;;;;;;62.22;41.38;;;8.80;99.90;;;;;;5070740;28;20302;-68
2021/10/09 00:22:07;;;;;;;65.03;42.05;;;8.70;99.90;;;;;;5066202;28;20124;-68
2021/10/09 00:24:32;;;;;;;56.97;41.42;;;8.70;99.90;;;;;;5051039;28;20383;-68
2021/10/09 00:26:58;;;;;;;65.20;43.47;;;8.70;99.90;;;;;;5052709;28;20056;-68
2021/10/09 00:29:23;;;;;;;56.35;40.85;;;8.60;99.90;;;;;;5050999;28;20114;-68
2021/10/09 00:31:49;;;;;;;52.10;38.85;;;8.60;99.90;;;;;;5034393;28;20037;-68
2021/10/09 00:34:14;;;;;;;64.90;41.55;;;8.60;99.90;;;;;;5050705;28;20130;-68
2021/10/09 00:36:40;;;;;;;66.47;42.58;;;8.60;99.90;;;;;;5050967;28;20115;-68
2021/10/09 00:39:06;;;;;;;59.05;40.88;;;8.50;99.90;;;;;;5050950;28;20056;-69
2021/10/09 00:41:32;;;;;;;63.30;43.13;;;8.50;99.90;;;;;;5050648;28;20045;-68
2021/10/09 00:44:12;;;;;;;63.28;40.78;;;8.50;99.90;;;;;;5050660;28;20049;-68
2021/10/09 00:46:43;;;;;;;82.13;48.92;;;8.50;99.90;;;;;;5050735;28;20041;-68
2021/10/09 00:49:15;;;;;;;79.40;44.88;;;8.50;99.90;;;;;;5051993;28;20037;-68
2021/10/09 00:51:42;;;;;;;74.72;45.55;;;8.50;99.90;;;;;;5050511;28;20479;-68
2021/10/09 00:54:09;;;;;;;85.03;48.30;;;8.50;99.90;;;;;;5032226;28;20057;-68
2021/10/09 00:56:38;;;;;;;76.00;46.67;;;8.50;99.90;;;;;;5049299;28;20041;-68
2021/10/09 00:59:04;;;;;;;90.28;48.92;;;8.50;99.90;;;;;;5051970;28;20045;-68
2021/10/09 01:01:30;;;;;;;77.35;46.20;;;8.50;99.90;;;;;;5051265;28;20040;-68
2021/10/09 01:03:57;;;;;;;71.30;43.88;;;8.50;99.90;;;;;;5050526;28;20037;-68
2021/10/09 01:06:22;;;;;;;60.67;40.92;;;8.50;99.90;;;;;;5050621;28;20127;-68
2021/10/09 01:08:48;;;;;;;60.22;40.75;;;8.50;99.90;;;;;;5051814;28;20128;-68
2021/10/09 01:11:14;;;;;;;56.58;39.17;;;8.40;99.90;;;;;;5033816;28;20175;-69
2021/10/09 01:13:39;;;;;;;73.63;43.65;;;8.40;99.90;;;;;;5036608;28;20038;-68
2021/10/09 01:16:24;;;;;;;68.70;43.08;;;8.40;99.90;;;;;;5048402;28;20041;-68
2021/10/09 01:18:50;;;;;;;85.78;47.78;;;8.40;99.90;;;;;;5049394;28;20105;-68
2021/10/09 01:21:16;;;;;;;61.70;40.95;;;8.40;99.90;;;;;;5065758;28;20562;-68
2021/10/09 01:23:42;;;;;;;67.93;44.70;;;8.30;99.90;;;;;;5070489;28;20071;-68
2021/10/09 01:26:09;;;;;;;101.57;46.83;;;8.30;99.90;;;;;;5051819;28;20474;-68
2021/10/09 01:28:41;;;;;;;65.38;41.38;;;8.30;99.90;;;;;;5050180;28;20101;-68
2021/10/09 01:31:07;;;;;;;68.85;42.60;;;8.20;99.90;;;;;;5057596;28;20067;-68
2021/10/09 01:33:32;;;;;;;72.65;42.67;;;8.20;99.90;;;;;;5068286;28;20102;-69
2021/10/09 01:35:58;;;;;;;76.47;43.35;;;8.20;99.90;;;;;;5052288;28;20043;-68
2021/10/09 01:38:26;;;;;;;83.47;45.67;;;8.20;99.90;;;;;;5049032;28;20048;-68
2021/10/09 01:40:52;;;;;;;91.93;49.50;;;8.30;99.90;;;;;;5048992;28;20033;-68
2021/10/09 01:43:19;;;;;;;106.72;49.13;;;8.30;99.90;;;;;;5048605;28;20044;-69
2021/10/09 01:45:46;;;;;;;96.13;47.30;;;8.30;99.90;;;;;;5049203;28;20072;-68
2021/10/09 01:48:13;;;;;;;84.88;47.58;;;8.30;99.90;;;;;;5048930;28;20356;-68
2021/10/09 01:50:39;;;;;;;103.07;50.33;;;8.30;99.90;;;;;;5047948;28;20037;-68
2021/10/09 01:53:07;;;;;;;96.45;48.17;;;8.30;99.90;;;;;;5045853;28;20507;-69
2021/10/09 01:55:37;;;;;;;100.35;50.85;;;8.30;99.90;;;;;;5048893;28;20041;-68
2021/10/09 01:58:04;;;;;;;118.68;51.80;;;8.30;99.90;;;;;;5042349;28;20084;-69
2021/10/09 02:00:30;;;;;;;95.47;48.60;;;8.30;99.90;;;;;;5045479;28;20072;-68
2021/10/09 02:03:01;;;;;;;94.63;47.92;;;8.40;99.90;;;;;;5040886;28;20075;-68
2021/10/09 02:05:27;;;;;;;85.10;46.03;;;8.30;99.90;;;;;;5038686;28;20502;-67
2021/10/09 02:07:53;;;;;;;102.22;48.08;;;8.30;99.90;;;;;;5046911;28;20036;-69
2021/10/09 02:10:18;;;;;;;104.72;50.15;;;8.40;99.90;;;;;;5046005;28;20033;-68
2021/10/09 02:12:44;;;;;;;91.35;47.00;;;8.30;99.90;;;;;;5048972;28;20041;-67
2021/10/09 02:15:28;;;;;;;111.82;53.88;;;8.40;99.90;;;;;;5022746;28;20091;-67
2021/10/09 02:26:05;;;;;;;120.50;53.78;;;8.60;99.90;;;;;;5046829;28;20053;-67
2021/10/09 02:28:31;;;;;;;127.35;53.13;;;8.60;99.90;;;;;;5046917;28;20049;-67
2021/10/09 02:30:56;;;;;;;139.68;57.17;;;8.70;99.90;;;;;;5047893;28;20552;-67
2021/10/09 02:33:22;;;;;;;240.88;67.15;;;8.70;99.90;;;;;;5046197;28;20041;-67
2021/10/09 02:35:48;;;;;;;215.10;66.53;;;8.80;99.90;;;;;;5045988;28;20039;-67
2021/10/09 02:38:13;;;;;;;179.43;61.75;;;8.90;99.90;;;;;;5031080;28;20044;-67
2021/10/09 02:40:41;;;;;;;311.60;65.90;;;8.90;99.90;;;;;;5044976;28;20033;-67
2021/10/09 02:43:07;;;;;;;246.98;64.55;;;9.00;99.90;;;;;;5047891;28;20045;-67
2021/10/09 02:45:32;;;;;;;237.07;59.97;;;9.00;99.90;;;;;;5044452;28;20091;-69
2021/10/09 02:48:01;;;;;;;370.55;69.63;;;9.00;99.90;;;;;;5046840;28;20570;-67
2021/10/09 02:50:27;;;;;;;385.52;70.82;;;9.10;99.90;;;;;;5046264;28;20390;-67
2021/10/09 02:52:53;;;;;;;348.73;64.57;;;9.10;99.90;;;;;;5047725;28;20409;-67
2021/10/09 02:55:19;;;;;;;304.35;60.40;;;9.20;99.90;;;;;;5047794;28;20095;-68
2021/10/09 02:57:46;;;;;;;384.27;66.82;;;9.30;99.90;;;;;;5047111;28;20045;-67
2021/10/09 03:00:12;;;;;;;249.75;50.50;;;9.30;99.90;;;;;;5045970;28;20364;-68
2021/10/09 03:02:38;;;;;;;208.27;45.97;;;9.30;99.90;;;;;;5045322;28;20397;-68
2021/10/09 03:05:05;;;;;;;278.60;49.97;;;9.40;99.90;;;;;;5039951;28;20045;-68
2021/10/09 03:07:31;;;;;;;273.00;52.70;;;9.40;99.90;;;;;;5039486;28;20261;-67
2021/10/09 03:09:56;;;;;;;196.05;44.78;;;9.50;99.90;;;;;;5047371;28;20135;-68
2021/10/09 03:12:22;;;;;;;260.55;47.53;;;9.40;99.90;;;;;;5046135;28;20041;-68
2021/10/09 03:14:47;;;;;;;279.88;52.15;;;9.40;99.90;;;;;;5048813;28;20032;-68
2021/10/09 03:17:13;;;;;;;205.77;45.83;;;9.40;99.90;;;;;;5043896;28;20154;-68
2021/10/09 03:19:39;;;;;;;153.05;38.92;;;9.40;99.90;;;;;;5045960;28;20474;-67
2021/10/09 03:22:04;;;;;;;219.38;45.40;;;9.40;99.90;;;;;;5048816;28;20044;-67
2021/10/09 03:24:30;;;;;;;227.73;47.90;;;9.40;99.90;;;;;;5047297;28;20441;-67
2021/10/09 03:26:55;;;;;;;202.68;45.95;;;9.40;99.90;;;;;;5047308;28;20132;-67
2021/10/09 03:29:21;;;;;;;169.07;42.55;;;9.30;99.90;;;;;;5047970;28;20553;-67
2021/10/09 03:31:47;;;;;;;198.15;44.20;;;9.30;99.90;;;;;;5046106;28;20045;-67
2021/10/09 03:34:12;;;;;;;207.57;46.58;;;9.30;99.90;;;;;;5045589;28;20098;-67
2021/10/09 03:36:38;;;;;;;165.60;43.13;;;9.30;99.90;;;;;;5046549;28;20434;-67
2021/10/09 03:39:08;;;;;;;190.02;45.00;;;9.30;99.90;;;;;;5046622;28;20041;-67
2021/10/09 03:41:35;;;;;;;182.48;48.05;;;9.30;99.90;;;;;;5046503;28;20557;-68
2021/10/09 03:44:00;;;;;;;166.38;43.65;;;9.30;99.90;;;;;;5047490;28;20033;-67
2021/10/09 03:46:28;;;;;;;164.80;46.10;;;9.30;99.90;;;;;;5045578;28;20055;-68
2021/10/09 03:49:03;;;;;;;121.55;39.70;;;9.30;99.90;;;;;;5046103;28;20045;-67
2021/10/09 03:54:13;;;;;;;146.50;43.65;;;9.30;99.90;;;;;;5048825;28;20353;-67
2021/10/09 03:56:42;;;;;;;126.10;43.25;;;9.30;99.90;;;;;;5050233;28;20112;-67
2021/10/09 03:59:09;;;;;;;124.75;46.17;;;9.30;99.90;;;;;;5051130;28;20443;-67
2021/10/09 04:01:35;;;;;;;184.32;48.55;;;9.30;99.90;;;;;;5051645;28;20063;-67
2021/10/09 04:04:00;;;;;;;140.77;45.08;;;9.30;99.90;;;;;;5049723;28;20041;-67
2021/10/09 04:06:26;;;;;;;114.32;43.33;;;9.40;99.90;;;;;;5050799;22;20066;-66
2021/10/09 04:08:52;;;;;;;152.07;42.63;;;9.40;99.90;;;;;;5053038;28;20183;-65
2021/10/09 04:11:17;;;;;;;133.57;42.90;;;9.40;99.90;;;;;;5034800;28;20337;-66
2021/10/09 04:13:43;;;;;;;122.07;45.03;;;9.40;99.90;;;;;;5054197;28;20037;-66
2021/10/09 04:16:08;;;;;;;113.07;43.70;;;9.40;99.90;;;;;;5061495;28;20033;-65
2021/10/09 04:18:34;;;;;;;182.52;47.72;;;9.40;99.90;;;;;;5072918;28;20049;-65
2021/10/09 04:21:00;;;;;;;178.77;46.10;;;9.40;99.90;;;;;;5071704;28;20836;-65
2021/10/09 04:23:26;;;;;;;143.18;42.28;;;9.40;99.90;;;;;;5072444;28;20047;-65
2021/10/09 04:25:52;;;;;;;181.68;45.75;;;9.50;99.90;;;;;;5072732;28;20477;-66
2021/10/09 04:28:17;;;;;;;117.22;34.60;;;9.40;99.90;;;;;;5054416;28;20040;-66
2021/10/09 04:30:43;;;;;;;124.78;40.50;;;9.50;99.90;;;;;;5071366;28;20036;-66
2021/10/09 04:33:08;;;;;;;104.05;35.10;;;9.50;99.90;;;;;;5070096;28;20470;-65
2021/10/09 04:35:34;;;;;;;164.57;40.95;;;9.50;99.90;;;;;;5071550;28;20052;-66
2021/10/09 04:38:07;;;;;;;125.07;34.38;;;9.50;99.90;;;;;;5069307;28;20045;-65
2021/10/09 04:40:33;;;;;;;140.10;39.28;;;9.50;99.90;;;;;;5072055;28;20394;-66
2021/10/09 04:42:59;;;;;;;176.23;43.38;;;9.50;99.90;;;;;;5045696;28;20110;-66
2021/10/09 04:45:25;;;;;;;104.88;39.15;;;9.40;99.90;;;;;;5059028;28;20045;-66
2021/10/09 04:47:50;;;;;;;123.97;37.95;;;9.40;99.90;;;;;;5070542;28;20078;-66
2021/10/09 04:50:16;;;;;;;97.40;33.65;;;9.40;99.90;;;;;;5053236;28;20043;-66
2021/10/09 04:52:42;;;;;;;149.75;38.08;;;9.50;99.90;;;;;;5067723;28;20035;-66
2021/10/09 04:55:07;;;;;;;80.07;32.88;;;9.50;99.90;;;;;;5053355;28;20056;-65
2021/10/09 04:57:33;;;;;;;112.82;37.33;;;9.50;99.90;;;;;;5070399;28;20398;-66
2021/10/09 04:59:59;;;;;;;106.10;34.97;;;9.50;99.90;;;;;;5071144;28;20044;-66
2021/10/09 05:02:24;;;;;;;117.90;40.88;;;9.50;99.90;;;;;;5070870;28;20040;-66
2021/10/09 05:04:50;;;;;;;153.10;41.60;;;9.50;99.90;;;;;;5071791;28;20036;-65
2021/10/09 05:07:15;;;;;;;141.55;43.78;;;9.40;99.90;;;;;;5052010;28;20362;-65
2021/10/09 05:09:42;;;;;;;152.20;41.75;;;9.40;99.90;;;;;;5071966;28;20053;-65
2021/10/09 05:12:08;;;;;;;86.53;40.03;;;9.40;99.90;;;;;;5053562;28;20041;-66
2021/10/09 05:14:34;;;;;;;137.60;45.03;;;9.30;99.90;;;;;;5036953;28;20127;-66
2021/10/09 05:17:00;;;;;;;138.85;45.72;;;9.40;99.90;;;;;;5071769;28;20071;-66
2021/10/09 05:19:26;;;;;;;102.13;42.53;;;9.40;99.90;;;;;;5070729;28;20056;-65
2021/10/09 05:21:51;;;;;;;131.90;41.20;;;9.40;99.90;;;;;;5071692;28;20123;-66
2021/10/09 05:24:17;;;;;;;147.55;45.60;;;9.50;99.90;;;;;;5068613;28;20093;-66
2021/10/09 05:26:43;;;;;;;116.63;47.00;;;9.50;99.90;;;;;;5051645;28;20171;-65
2021/10/09 05:29:15;;;;;;;103.97;44.45;;;9.50;99.90;;;;;;5070205;28;20032;-66
2021/10/09 05:31:40;;;;;;;109.55;43.78;;;9.40;99.90;;;;;;5051531;28;20075;-66
2021/10/09 05:34:06;;;;;;;112.82;43.60;;;9.40;99.90;;;;;;5064820;28;20045;-65
2021/10/09 05:36:31;;;;;;;132.18;40.85;;;9.50;99.90;;;;;;5070448;28;20478;-65
2021/10/09 05:38:57;;;;;;;124.25;45.25;;;9.60;99.90;;;;;;5058230;28;20043;-66
2021/10/09 05:41:23;;;;;;;130.55;48.47;;;9.60;99.90;;;;;;5051364;28;20033;-66
2021/10/09 05:43:48;;;;;;;121.93;48.30;;;9.60;99.90;;;;;;5067775;28;20121;-66
2021/10/09 05:46:16;;;;;;;99.75;47.42;;;9.50;99.90;;;;;;5052102;28;20067;-65
2021/10/09 05:48:42;;;;;;;109.90;44.97;;;9.50;99.90;;;;;;5058591;28;20115;-65
2021/10/09 05:51:31;;;;;;;122.97;49.30;;;9.60;99.90;;;;;;5067590;28;20036;-65
2021/10/09 05:54:05;;;;;;;124.85;52.17;;;9.60;99.90;;;;;;5069883;28;20068;-65
2021/10/09 05:56:58;;;;;;;128.63;52.75;;;9.60;99.90;;;;;;5067913;28;20040;-66
2021/10/09 06:31:55;;;;;;;87.00;48.40;;;9.70;99.90;;;;;;5062416;28;20132;-65
2021/10/09 06:42:49;;;;;;;86.63;48.72;;;9.80;99.90;;;;;;5065353;28;20497;-65
2021/10/09 06:51:06;;;;;;;76.25;45.95;;;9.80;99.90;;;;;;5066271;28;20482;-65
2021/10/09 06:59:30;;;;;;;72.03;44.42;;;9.90;99.90;;;;;;5069470;28;20040;-66
2021/10/09 07:01:56;;;;;;;69.93;44.03;;;9.90;99.90;;;;;;5059459;28;20094;-65
2021/10/09 07:04:21;;;;;;;78.97;48.15;;;9.90;99.90;;;;;;5066423;28;20041;-65
2021/10/09 07:06:49;;;;;;;93.10;51.67;;;10.00;99.90;;;;;;5066805;28;20052;-66
2021/10/09 07:09:14;;;;;;;81.22;50.10;;;10.00;99.90;;;;;;5066597;28;20048;-65
2021/10/09 07:11:40;;;;;;;66.82;43.85;;;9.90;99.90;;;;;;5068954;28;20059;-65
2021/10/09 07:14:07;;;;;;;71.57;44.85;;;10.10;99.90;;;;;;5049881;28;20044;-65
2021/10/09 07:16:33;;;;;;;81.40;48.45;;;10.10;99.90;;;;;;5068621;28;20363;-66
2021/10/09 07:18:58;;;;;;;72.15;47.05;;;10.00;99.90;;;;;;5063917;28;20071;-66
2021/10/09 07:21:24;;;;;;;77.63;48.67;;;10.00;99.90;;;;;;5064876;28;20048;-65
2021/10/09 07:23:49;;;;;;;72.10;46.40;;;10.00;99.90;;;;;;5067223;28;20217;-65
2021/10/09 07:26:15;;;;;;;76.13;47.70;;;10.00;99.90;;;;;;5051324;28;20044;-65
2021/10/09 07:28:40;;;;;;;71.18;43.33;;;10.10;99.90;;;;;;5070050;28;20722;-65
2021/10/09 07:31:06;;;;;;;65.82;43.30;;;10.10;99.90;;;;;;5051061;28;20033;-66
2021/10/09 07:33:31;;;;;;;66.78;43.85;;;10.20;99.90;;;;;;5069167;28;20068;-65
2021/10/09 07:35:57;;;;;;;72.07;46.50;;;10.10;99.90;;;;;;5071831;28;20095;-65
2021/10/09 07:38:22;;;;;;;70.57;42.20;;;10.00;99.90;;;;;;5072885;28;20075;-65
2021/10/09 07:40:48;;;;;;;68.60;44.65;;;10.00;99.90;;;;;;5069593;28;20037;-65
2021/10/09 07:43:14;;;;;;;69.60;44.63;;;10.00;99.90;;;;;;5052291;28;20044;-65
2021/10/09 07:45:39;;;;;;;81.85;49.95;;;10.00;99.90;;;;;;5072301;28;20119;-66
2021/10/09 07:48:05;;;;;;;75.18;49.13;;;10.00;99.90;;;;;;5052511;28;20052;-66
2021/10/09 07:50:30;;;;;;;80.43;48.47;;;10.00;99.90;;;;;;5073243;28;20041;-66
2021/10/09 07:52:56;;;;;;;76.03;46.75;;;10.00;99.90;;;;;;5054960;28;20036;-66
2021/10/09 07:55:21;;;;;;;78.85;49.58;;;10.00;99.90;;;;;;5068856;28;20052;-66
2021/10/09 07:57:47;;;;;;;65.68;45.33;;;10.10;99.90;;;;;;5053725;28;20397;-66
2021/10/09 08:00:13;;;;;;;72.18;47.75;;;10.10;99.90;;;;;;5072433;28;20071;-66
2021/10/09 08:02:44;;;;;;;78.60;47.95;;;10.20;99.90;;;;;;5072018;28;20048;-66
2021/10/09 08:05:10;;;;;;;73.75;47.22;;;10.20;99.90;;;;;;5053307;28;20550;-66
2021/10/09 08:07:35;;;;;;;65.18;43.42;;;10.20;99.90;;;;;;5054500;28;20086;-66
2021/10/09 08:10:01;;;;;;;64.60;44.80;;;10.30;99.90;;;;;;5071722;28;20056;-66
2021/10/09 08:12:26;;;;;;;63.08;44.28;;;10.30;99.90;;;;;;5071453;28;20505;-66
2021/10/09 08:14:52;;;;;;;61.05;41.78;;;10.40;99.90;;;;;;5072947;28;20492;-66
2021/10/09 08:17:18;;;;;;;60.78;43.88;;;10.50;99.90;;;;;;5071958;28;20391;-66
2021/10/09 08:19:44;;;;;;;63.42;44.30;;;10.50;99.90;;;;;;5070610;28;20080;-66
2021/10/09 08:22:11;;;;;;;65.25;46.22;;;10.60;99.90;;;;;;5058915;28;20099;-66
2021/10/09 08:27:14;;;;;;;64.75;44.85;;;10.60;99.90;;;;;;5071163;28;20040;-63
2021/10/09 08:35:29;;;;;;;60.78;43.10;;;10.70;99.90;;;;;;5069260;28;20051;-63
2021/10/09 08:40:39;;;;;;;55.83;40.40;;;10.80;99.90;;;;;;5064544;28;20386;-62
2021/10/09 08:43:05;;;;;;;51.35;37.70;;;10.90;99.90;;;;;;5067340;28;20036;-62
2021/10/09 08:45:30;;;;;;;58.03;40.55;;;10.80;99.90;;;;;;5072347;28;20486;-62
2021/10/09 08:47:56;;;;;;;61.15;39.58;;;10.90;99.90;;;;;;5053970;28;20111;-62
2021/10/09 08:50:21;;;;;;;58.97;42.60;;;10.90;99.90;;;;;;5054332;28;20036;-62
2021/10/09 08:53:09;;;;;;;62.25;43.22;;;11.10;99.90;;;;;;5071971;28;20131;-62
2021/10/09 08:55:39;;;;;;;55.97;39.33;;;11.30;99.90;;;;;;5071911;28;20047;-63
2021/10/09 08:58:09;;;;;;;51.75;38.88;;;11.60;99.90;;;;;;5052714;28;20397;-62
2021/10/09 09:00:48;;;;;;;54.78;39.75;;;11.80;99.90;;;;;;5053942;28;20044;-62
2021/10/09 09:03:18;;;;;;;48.53;36.03;;;12.00;99.90;;;;;;5053536;28;20040;-62
2021/10/09 09:06:05;;;;;;;50.00;37.53;;;12.10;99.90;;;;;;5071727;28;20553;-62
2021/10/09 09:08:55;;;;;;;51.10;38.83;;;12.10;99.90;;;;;;5071782;28;20434;-62
2021/10/09 09:25:46;;;;;;;54.60;38.00;;;12.10;99.90;;;;;;5071296;28;20052;-62
2021/10/09 09:34:10;;;;;;;48.67;33.97;;;12.00;99.90;;;;;;5052655;28;20123;-62
2021/10/09 09:41:48;;;;;;;57.00;40.72;;;12.10;99.90;;;;;;5070715;28;20092;-62
2021/10/09 09:44:16;;;;;;;47.88;37.03;;;12.20;99.90;;;;;;5070449;28;20450;-62
2021/10/09 09:46:42;;;;;;;51.35;39.17;;;12.20;99.90;;;;;;5052628;28;20111;-63
2021/10/09 09:49:09;;;;;;;58.47;40.03;;;12.30;99.90;;;;;;5052606;28;20119;-62
2021/10/09 09:51:38;;;;;;;46.28;36.97;;;12.30;99.90;;;;;;5069725;28;20394;-62
2021/10/09 09:54:05;;;;;;;47.42;36.08;;;12.40;99.90;;;;;;5022347;28;20632;-64
2021/10/09 09:56:30;;;;;;;50.67;34.88;;;12.50;99.90;;;;;;5052418;28;20040;-63
2021/10/09 09:59:00;;;;;;;47.25;34.22;;;12.70;99.90;;;;;;5035927;28;20619;-64
2021/10/09 10:01:32;;;;;;;42.72;31.17;;;12.80;99.90;;;;;;5070347;28;20040;-63
2021/10/09 10:03:59;;;;;;;41.30;32.20;;;12.80;99.90;;;;;;5070342;28;20045;-63
2021/10/09 10:06:27;;;;;;;44.78;32.53;;;12.70;99.90;;;;;;5070164;28;20064;-63
2021/10/09 10:08:55;;;;;;;40.80;31.33;;;12.80;99.90;;;;;;5050537;28;20044;-63
2021/10/09 10:11:21;;;;;;;45.28;34.25;;;12.90;99.90;;;;;;5051092;28;20064;-63
2021/10/09 10:13:48;;;;;;;40.65;30.48;;;12.90;99.90;;;;;;5069386;28;20091;-63
2021/10/09 10:16:14;;;;;;;37.65;27.65;;;13.00;99.90;;;;;;5052105;28;20083;-64
2021/10/09 10:18:45;;;;;;;35.35;29.00;;;13.10;99.90;;;;;;5070312;28;20086;-63
2021/10/09 10:21:28;;;;;;;37.70;27.48;;;13.10;99.90;;;;;;5052495;28;20040;-63
2021/10/09 10:23:54;;;;;;;34.53;27.85;;;13.20;99.90;;;;;;5068587;28;20064;-63
2021/10/09 10:26:30;;;;;;;33.83;26.45;;;13.30;99.90;;;;;;5070189;28;20384;-63
2021/10/09 10:28:55;;;;;;;36.70;27.85;;;13.40;99.90;;;;;;5052119;28;20029;-63
2021/10/09 10:31:22;;;;;;;37.53;27.85;;;13.40;99.90;;;;;;5069494;28;20094;-64
2021/10/09 10:33:59;;;;;;;33.85;27.02;;;13.40;99.90;;;;;;5069739;28;20049;-63
2021/10/09 10:36:37;;;;;;;32.83;25.90;;;13.50;99.90;;;;;;5070216;28;20067;-64
2021/10/09 10:39:04;;;;;;;34.35;26.88;;;13.60;99.90;;;;;;5070228;28;20040;-63
2021/10/09 10:41:59;;;;;;;34.05;27.02;;;13.70;99.90;;;;;;5067339;28;20067;-63
2021/10/09 10:44:47;;;;;;;33.65;26.02;;;13.70;99.90;;;;;;5070079;28;20111;-63
2021/10/09 10:47:54;;;;;;;33.30;25.45;;;13.80;99.90;;;;;;5069770;28;20047;-63
2021/10/09 10:53:53;;;;;;;29.48;21.65;;;13.90;99.90;;;;;;5049160;28;20041;-63
2021/10/09 10:56:19;;;;;;;28.30;22.20;;;13.90;99.90;;;;;;5069697;28;20147;-63
2021/10/09 10:58:44;;;;;;;31.30;23.50;;;14.00;99.90;;;;;;5069661;28;20537;-64
2021/10/09 11:01:20;;;;;;;30.02;23.88;;;13.90;99.90;;;;;;5069710;28;20036;-64
2021/10/09 11:03:54;;;;;;;31.40;22.98;;;14.00;99.90;;;;;;5073461;28;20048;-63
2021/10/09 11:06:24;;;;;;;36.42;23.10;;;14.10;99.90;;;;;;5055380;28;20119;-63
2021/10/09 11:08:51;;;;;;;30.13;23.92;;;14.10;99.90;;;;;;5070878;28;20040;-64
2021/10/09 11:11:31;;;;;;;29.13;23.77;;;14.20;99.90;;;;;;5070986;28;20559;-64
2021/10/09 11:13:58;;;;;;;30.38;23.02;;;14.20;99.90;;;;;;5071669;28;20052;-65
2021/10/09 11:16:30;;;;;;;29.20;22.98;;;14.30;99.90;;;;;;5069930;28;20032;-64
2021/10/09 11:18:56;;;;;;;29.33;21.88;;;14.40;99.90;;;;;;5070070;28;20433;-64
2021/10/09 11:21:22;;;;;;;122.60;61.03;;;14.50;99.90;;;;;;5069642;28;20068;-64
2021/10/09 11:23:50;;;;;;;30.63;22.80;;;14.60;99.90;;;;;;5052604;28;20124;-64
2021/10/09 11:26:17;;;;;;;30.10;20.63;;;14.60;99.90;;;;;;5068927;28;20040;-65
2021/10/09 11:28:43;;;;;;;30.92;20.85;;;14.60;99.90;;;;;;5067257;28;20371;-65
2021/10/09 11:31:09;;;;;;;24.95;20.63;;;14.70;99.90;;;;;;5055749;28;20048;-64
2021/10/09 11:33:36;;;;;;;38.63;24.00;;;14.80;99.90;;;;;;5053587;28;20051;-64
2021/10/09 11:36:03;;;;;;;27.65;20.92;;;14.90;99.90;;;;;;5055772;28;20112;-64
2021/10/09 11:38:32;;;;;;;27.42;21.27;;;14.80;99.90;;;;;;5052187;28;20036;-65
2021/10/09 11:41:05;;;;;;;26.77;20.25;;;14.90;99.90;;;;;;5070614;28;20426;-64
2021/10/09 11:43:59;;;;;;;27.88;20.25;;;14.90;99.90;;;;;;5071562;28;20044;-64
2021/10/09 11:55:15;;;;;;;24.08;17.70;;;15.20;99.90;;;;;;5070645;28;20043;-64
2021/10/09 11:57:33;;;;;;;22.70;17.90;;;15.20;99.90;;;;;;5066798;28;20557;-65
2021/10/09 11:59:59;;;;;;;20.85;17.80;;;15.20;99.90;;;;;;5071470;28;20032;-64
2021/10/09 12:02:35;;;;;;;21.38;17.30;;;15.20;99.90;;;;;;5028414;28;20044;-64
2021/10/09 12:05:01;;;;;;;24.27;17.50;;;15.20;99.90;;;;;;5031964;28;20131;-64
2021/10/09 12:07:27;;;;;;;20.73;16.95;;;15.20;99.90;;;;;;5061202;22;20136;-63
2021/10/09 12:10:01;;;;;;;21.25;16.48;;;15.40;99.90;;;;;;5056694;28;20433;-64
2021/10/09 12:12:32;;;;;;;21.95;16.73;;;15.40;99.90;;;;;;5053501;28;20040;-64
2021/10/09 12:14:58;;;;;;;27.02;17.25;;;15.50;99.90;;;;;;5039300;28;20124;-64
2021/10/09 12:17:34;;;;;;;24.15;17.52;;;15.50;99.90;;;;;;5039406;28;20131;-64
2021/10/09 12:20:03;;;;;;;20.92;17.08;;;15.40;99.90;;;;;;5055821;28;20048;-64
2021/10/09 12:22:43;;;;;;;23.42;15.88;;;15.40;99.90;;;;;;5053492;28;20063;-64
2021/10/09 12:25:25;;;;;;;20.52;15.88;;;15.40;99.90;;;;;;5040388;28;20391;-64
2021/10/09 12:28:01;;;;;;;19.88;15.77;;;15.50;99.90;;;;;;5048851;28;20150;-64
2021/10/09 12:30:34;;;;;;;21.98;16.13;;;15.50;99.90;;;;;;5050334;28;20045;-64
2021/10/09 12:33:00;;;;;;;19.50;16.40;;;15.60;99.90;;;;;;5051904;28;20052;-64
2021/10/09 12:35:32;;;;;;;21.15;15.73;;;15.70;99.90;;;;;;5051029;28;20045;-64
2021/10/09 12:38:01;;;;;;;20.23;16.52;;;15.80;99.90;;;;;;5051322;28;20045;-64
2021/10/09 12:40:43;;;;;;;20.38;14.57;;;15.80;99.90;;;;;;5049756;28;20394;-64
2021/10/09 12:43:13;;;;;;;;;;;15.80;99.90;;;;;;5051038;28;20489;-64
2021/10/09 12:45:40;;;;;;;17.70;14.77;;;15.80;99.90;;;;;;5048439;28;19916;-64
2021/10/09 12:48:06;;;;;;;19.65;14.00;;;15.80;99.90;;;;;;5049405;28;20064;-64
2021/10/09 12:50:35;;;;;;;19.83;14.60;;;15.90;99.90;;;;;;5047419;28;20025;-64
2021/10/09 12:53:02;;;;;;;22.42;15.15;;;15.90;99.90;;;;;;5050545;28;20442;-64
2021/10/09 12:55:33;;;;;;;17.55;14.82;;;15.90;99.90;;;;;;5054461;28;20082;-64
2021/10/09 12:57:59;;;;;;;19.10;13.73;;;15.90;99.90;;;;;;5057134;28;20072;-64
2021/10/09 13:00:27;;;;;;;17.67;13.73;;;16.00;99.90;;;;;;5050762;28;20043;-64
2021/10/09 13:02:53;;;;;;;18.85;13.73;;;16.00;99.90;;;;;;5051410;28;20098;-64
2021/10/09 13:05:20;;;;;;;17.88;14.52;;;16.10;99.90;;;;;;5051097;28;20041;-64
2021/10/09 13:07:46;;;;;;;18.25;14.48;;;16.10;99.90;;;;;;5049338;28;20498;-64
2021/10/09 13:10:12;;;;;;;20.73;14.70;;;16.10;99.90;;;;;;5050798;28;20073;-64
2021/10/09 13:12:38;;;;;;;19.88;13.63;;;16.10;99.90;;;;;;5048866;28;20033;-64
2021/10/09 13:15:05;;;;;;;18.60;14.68;;;16.20;99.90;;;;;;5040884;28;20482;-64
2021/10/09 13:17:30;;;;;;;18.55;14.05;;;16.20;99.90;;;;;;5034524;28;20568;-64
2021/10/09 13:19:56;;;;;;;18.95;13.70;;;16.10;99.90;;;;;;5043154;28;20041;-64
2021/10/09 13:22:22;;;;;;;21.48;14.02;;;16.10;99.90;;;;;;5052309;28;20406;-64
2021/10/09 13:24:47;;;;;;;19.50;13.30;;;16.20;99.90;;;;;;5050761;28;20182;-64
2021/10/09 13:27:13;;;;;;;16.83;12.93;;;16.20;99.90;;;;;;5050290;28;20120;-63
2021/10/09 13:29:38;;;;;;;18.23;13.30;;;16.30;99.90;;;;;;5043655;28;20056;-63
2021/10/09 13:32:05;;;;;;;17.45;13.30;;;16.20;99.90;;;;;;5066560;28;20047;-63
2021/10/09 13:34:30;;;;;;;16.00;13.45;;;16.30;99.90;;;;;;5060212;28;20135;-63
2021/10/09 13:36:56;;;;;;;19.38;12.52;;;16.30;99.90;;;;;;5049181;28;20123;-63
2021/10/09 13:39:22;;;;;;;18.67;12.73;;;16.30;99.90;;;;;;5064519;28;20167;-64
2021/10/09 13:41:47;;;;;;;16.92;12.35;;;16.30;99.90;;;;;;5050248;28;20048;-64
2021/10/09 13:44:13;;;;;;;17.42;12.85;;;16.30;99.90;;;;;;5049169;28;20045;-64
2021/10/09 13:46:38;;;;;;;19.05;11.80;;;16.30;99.90;;;;;;5039774;28;20029;-64
2021/10/09 13:49:07;;;;;;;16.00;12.38;;;16.30;99.90;;;;;;5051232;28;20525;-64
2021/10/09 13:51:33;;;;;;;16.88;12.45;;;16.30;99.90;;;;;;5050253;28;20037;-64
2021/10/09 13:53:59;;;;;;;16.20;13.20;;;16.30;99.90;;;;;;5049822;28;20035;-64
2021/10/09 13:56:25;;;;;;;19.08;13.43;;;16.40;99.90;;;;;;5049058;28;20043;-64
2021/10/09 13:58:50;;;;;;;17.23;13.30;;;16.40;99.90;;;;;;5048221;28;20036;-64
2021/10/09 14:01:16;;;;;;;18.85;13.80;;;16.40;99.90;;;;;;5048167;28;20048;-64
2021/10/09 14:03:43;;;;;;;17.73;13.05;;;16.40;99.90;;;;;;5049826;28;20144;-64
2021/10/09 14:06:09;;;;;;;17.05;12.52;;;16.30;99.90;;;;;;5052219;28;20041;-64
2021/10/09 14:08:34;;;;;;;17.08;13.70;;;16.30;99.90;;;;;;5050460;28;20045;-64
2021/10/09 14:11:00;;;;;;;19.25;12.75;;;16.20;99.50;;;;;;5051323;28;20489;-64
2021/10/09 14:13:27;;;;;;;16.17;12.48;;;16.30;99.90;;;;;;5053803;28;20100;-64
2021/10/09 14:15:53;;;;;;;16.98;11.70;;;16.30;99.90;;;;;;5048732;28;20091;-64
2021/10/09 14:18:19;;;;;;;17.50;12.40;;;16.30;99.90;;;;;;5050489;28;20044;-64
2021/10/09 14:20:56;;;;;;;15.27;11.30;;;16.30;99.90;;;;;;5050351;28;20068;-64
2021/10/09 14:23:22;;;;;;;16.00;12.25;;;16.30;99.90;;;;;;5047528;28;20045;-64